Time;durP1;ratioP1;P1;durP2;ratioP2;P2;SDS_P1;SDS_P2;PMS_P1;PMS_P2;Temp;Humidity;BMP_temperature;BMP_pressure;BME280_temperature;BME280_humidity;BME280_pressure;Samples;Min_cycle;Max_cycle;Signal;HPM_P1;HPM_P2
2022/01/29 00:01:52;;;;;;;12.55;3.92;;;7.40;1.00;;;;;;5013938;28;20022;-83
2022/01/29 00:04:18;;;;;;;10.55;4.07;;;7.40;1.00;;;;;;5013548;28;20034;-82
2022/01/29 00:06:44;;;;;;;11.73;3.70;;;7.40;1.00;;;;;;5014034;28;20029;-82
2022/01/29 00:09:13;;;;;;;13.60;3.95;;;7.60;1.00;;;;;;5013825;28;20109;-83
2022/01/29 00:11:40;;;;;;;16.57;4.40;;;7.50;1.00;;;;;;5013553;28;20029;-83
2022/01/29 00:14:08;;;;;;;15.38;4.05;;;7.50;1.00;;;;;;5014048;28;20282;-83
2022/01/29 00:16:35;;;;;;;12.80;3.78;;;7.50;1.00;;;;;;5014696;28;20030;-82
2022/01/29 00:19:00;;;;;;;11.63;4.57;;;7.50;1.00;;;;;;5014593;28;20042;-83
2022/01/29 00:21:26;;;;;;;12.70;3.83;;;7.50;1.00;;;;;;5013702;28;20048;-83
2022/01/29 00:23:52;;;;;;;13.35;4.35;;;7.50;1.00;;;;;;5014680;28;20030;-83
2022/01/29 00:26:21;;;;;;;18.83;4.53;;;7.50;1.00;;;;;;5013860;28;20080;-83
2022/01/29 00:28:46;;;;;;;12.63;3.88;;;7.50;1.00;;;;;;5013427;28;20396;-82
2022/01/29 00:31:12;;;;;;;13.65;4.28;;;7.50;1.00;;;;;;5013222;28;20025;-82
2022/01/29 00:33:38;;;;;;;15.38;4.10;;;7.70;1.00;;;;;;5013105;28;20029;-83
2022/01/29 00:36:04;;;;;;;18.42;5.15;;;7.50;1.00;;;;;;5014618;28;20108;-83
2022/01/29 00:38:30;;;;;;;11.02;4.10;;;7.60;1.00;;;;;;5013414;28;20049;-82
2022/01/29 00:40:56;;;;;;;17.33;4.90;;;7.60;1.00;;;;;;5013781;28;20488;-82
2022/01/29 00:43:21;;;;;;;14.18;4.90;;;7.50;1.00;;;;;;5013131;28;20030;-83
2022/01/29 00:45:47;;;;;;;15.30;3.88;;;7.60;1.00;;;;;;5014395;28;20025;-83
2022/01/29 00:48:13;;;;;;;15.43;4.47;;;7.60;1.00;;;;;;5013612;28;20366;-82
2022/01/29 00:50:38;;;;;;;12.18;3.88;;;7.60;1.00;;;;;;5013325;28;20022;-83
2022/01/29 00:53:04;;;;;;;12.95;4.60;;;7.70;1.00;;;;;;5013238;28;20383;-82
2022/01/29 00:55:30;;;;;;;16.05;4.20;;;7.70;1.00;;;;;;5012594;28;20137;-83
2022/01/29 00:57:55;;;;;;;17.60;4.97;;;7.70;5.50;;;;;;5014272;28;20030;-82
2022/01/29 01:00:21;;;;;;;15.85;4.65;;;7.70;17.20;;;;;;5013308;28;20026;-82
2022/01/29 01:02:46;;;;;;;13.98;4.05;;;7.70;25.80;;;;;;5012935;28;20092;-83
2022/01/29 01:05:12;;;;;;;18.17;4.93;;;7.70;31.80;;;;;;5012955;28;20017;-83
2022/01/29 01:07:38;;;;;;;18.30;4.57;;;7.80;45.40;;;;;;5013955;28;20029;-83
2022/01/29 01:10:08;;;;;;;15.82;4.95;;;7.70;49.60;;;;;;5012590;28;20022;-83
2022/01/29 01:12:34;;;;;;;16.45;4.95;;;7.80;74.60;;;;;;5012930;28;20033;-83
2022/01/29 01:14:59;;;;;;;18.90;6.30;;;7.80;90.90;;;;;;5012801;28;20034;-83
2022/01/29 01:20:48;;;;;;;20.80;5.18;;;7.90;99.90;;;;;;4978725;28;20105;-83
2022/01/29 01:23:22;;;;;;;15.23;5.25;;;7.90;99.90;;;;;;4992973;28;20038;-83
2022/01/29 01:25:48;;;;;;;14.07;4.72;;;7.90;99.90;;;;;;4993130;28;20030;-82
2022/01/29 01:28:31;;;;;;;16.00;5.13;;;7.90;99.90;;;;;;5013632;28;20030;-82
2022/01/29 01:30:57;;;;;;;21.52;5.43;;;7.90;99.90;;;;;;5013582;28;20358;-83
2022/01/29 01:33:25;;;;;;;20.58;5.30;;;7.90;99.90;;;;;;5012495;28;20478;-83
2022/01/29 01:36:18;;;;;;;16.65;5.30;;;8.00;99.90;;;;;;5012519;28;20117;-83
2022/01/29 01:38:59;;;;;;;25.17;5.95;;;7.90;99.90;;;;;;5013958;28;20072;-83
2022/01/29 01:41:26;;;;;;;13.65;5.50;;;8.00;99.90;;;;;;5012697;28;20125;-83
2022/01/29 01:43:59;;;;;;;14.55;5.10;;;8.00;99.90;;;;;;5012348;28;20112;-83
2022/01/29 01:46:28;;;;;;;14.50;5.43;;;8.00;99.90;;;;;;5012864;28;20061;-83
2022/01/29 01:48:55;;;;;;;17.95;5.85;;;8.00;99.90;;;;;;5012261;28;20056;-83
2022/01/29 01:51:21;;;;;;;18.75;5.15;;;8.00;99.90;;;;;;5013307;28;20101;-83
2022/01/29 01:53:47;;;;;;;16.30;5.82;;;8.00;99.90;;;;;;5012158;28;20461;-83
2022/01/29 01:56:12;;;;;;;18.85;5.95;;;8.00;99.90;;;;;;5011971;28;20401;-83
2022/01/29 01:58:38;;;;;;;19.45;6.75;;;8.00;99.90;;;;;;5012032;28;20471;-83
2022/01/29 02:01:04;;;;;;;20.70;5.90;;;8.00;99.90;;;;;;5012083;28;20018;-83
2022/01/29 02:03:29;;;;;;;21.42;6.60;;;8.00;99.90;;;;;;5012776;28;20351;-83
2022/01/29 02:05:56;;;;;;;20.42;6.50;;;8.00;99.90;;;;;;5013062;28;20755;-83
2022/01/29 02:08:21;;;;;;;20.73;6.47;;;8.00;99.90;;;;;;5014630;28;20022;-83
2022/01/29 02:10:49;;;;;;;20.00;6.03;;;8.00;99.90;;;;;;5016654;28;20569;-83
2022/01/29 02:13:15;;;;;;;22.60;6.32;;;8.00;99.90;;;;;;5016170;28;20025;-83
2022/01/29 02:15:40;;;;;;;22.17;6.07;;;8.00;99.90;;;;;;5016844;28;20049;-83
2022/01/29 02:18:13;;;;;;;11.48;4.55;;;8.00;99.90;;;;;;5015532;28;20474;-83
2022/01/29 02:20:40;;;;;;;19.92;6.35;;;8.00;99.90;;;;;;5015610;28;20431;-83
2022/01/29 02:23:05;;;;;;;22.00;6.43;;;8.00;99.90;;;;;;5016849;28;20704;-83
2022/01/29 02:25:40;;;;;;;19.63;6.13;;;7.90;99.90;;;;;;5015811;28;20466;-83
2022/01/29 02:28:07;;;;;;;16.25;6.05;;;8.00;99.90;;;;;;5015682;28;20033;-83
2022/01/29 02:30:35;;;;;;;25.90;6.80;;;8.00;99.90;;;;;;5015669;28;20116;-83
2022/01/29 02:33:05;;;;;;;20.67;6.40;;;8.00;99.90;;;;;;5015674;28;20504;-83
2022/01/29 02:35:31;;;;;;;;;;;8.00;99.90;;;;;;5016537;28;20389;-83
2022/01/29 02:37:57;;;;;;;20.02;6.13;;;8.00;99.90;;;;;;5015515;28;20001;-83
2022/01/29 02:40:24;;;;;;;18.33;5.80;;;8.00;99.90;;;;;;5016456;28;20101;-83
2022/01/29 02:42:52;;;;;;;17.35;6.22;;;8.00;99.90;;;;;;5016650;28;20021;-83
2022/01/29 02:45:18;;;;;;;20.55;6.07;;;8.00;99.90;;;;;;5015713;28;20026;-83
2022/01/29 02:47:44;;;;;;;18.25;6.00;;;8.00;99.90;;;;;;5015394;28;20029;-83
2022/01/29 02:50:09;;;;;;;22.85;7.07;;;8.00;99.90;;;;;;5015283;28;20022;-83
2022/01/29 02:52:35;;;;;;;21.60;7.15;;;8.00;99.90;;;;;;5015888;28;20064;-83
2022/01/29 02:55:02;;;;;;;20.30;6.63;;;8.00;99.90;;;;;;5016606;28;20025;-83
2022/01/29 02:57:28;;;;;;;15.65;6.63;;;8.00;99.90;;;;;;5014943;28;20580;-83
2022/01/29 02:59:57;;;;;;;20.27;6.68;;;8.00;99.90;;;;;;5016145;28;20022;-83
2022/01/29 03:02:23;;;;;;;19.17;6.90;;;8.00;99.90;;;;;;5014784;28;20030;-83
2022/01/29 03:04:49;;;;;;;20.17;7.20;;;8.10;99.90;;;;;;5015175;28;20064;-83
2022/01/29 03:07:14;;;;;;;20.05;7.15;;;8.00;99.90;;;;;;5015595;28;20033;-83
2022/01/29 03:09:40;;;;;;;14.75;6.40;;;8.10;99.90;;;;;;5016225;28;20034;-83
2022/01/29 03:12:06;;;;;;;22.88;7.32;;;8.10;99.90;;;;;;5016148;28;20021;-83
2022/01/29 03:14:32;;;;;;;24.25;7.28;;;8.00;99.90;;;;;;5016190;28;20137;-83
2022/01/29 03:16:57;;;;;;;24.25;8.82;;;8.10;99.90;;;;;;5016046;28;20101;-83
2022/01/29 03:19:23;;;;;;;23.27;7.47;;;8.10;99.90;;;;;;5014220;28;20373;-83
2022/01/29 03:21:48;;;;;;;16.95;7.80;;;8.10;99.90;;;;;;5014260;28;20741;-83
2022/01/29 03:24:14;;;;;;;19.67;7.63;;;8.10;99.90;;;;;;5014634;28;20029;-83
2022/01/29 03:26:40;;;;;;;22.88;7.00;;;8.20;99.90;;;;;;5014637;28;20057;-83
2022/01/29 03:29:06;;;;;;;24.02;7.43;;;8.20;99.90;;;;;;5014564;28;20037;-83
2022/01/29 03:32:13;;;;;;;20.90;7.20;;;8.20;99.90;;;;;;5014573;28;20017;-83
2022/01/29 03:34:39;;;;;;;25.25;7.88;;;8.20;99.90;;;;;;5012395;28;20099;-83
2022/01/29 03:40:28;;;;;;;18.00;7.47;;;8.20;99.90;;;;;;4995877;28;20024;-83
2022/01/29 03:43:05;;;;;;;21.88;7.90;;;8.20;99.90;;;;;;4994410;28;20491;-83
2022/01/29 03:45:31;;;;;;;16.92;7.20;;;8.20;99.90;;;;;;4994633;28;20030;-83
2022/01/29 03:47:57;;;;;;;16.35;7.30;;;8.20;99.90;;;;;;4994655;28;20030;-82
2022/01/29 03:50:23;;;;;;;17.48;6.75;;;8.40;99.90;;;;;;4995569;28;20025;-83
2022/01/29 03:52:48;;;;;;;18.58;7.95;;;8.30;99.90;;;;;;4995892;28;20474;-83
2022/01/29 03:55:17;;;;;;;20.45;7.57;;;8.30;99.90;;;;;;4994756;28;20466;-83
2022/01/29 03:57:43;;;;;;;20.05;7.65;;;8.30;99.90;;;;;;4994242;28;20061;-83
2022/01/29 04:00:09;;;;;;;20.17;8.05;;;8.30;99.90;;;;;;4994190;28;20058;-83
2022/01/29 04:02:35;;;;;;;17.30;6.53;;;8.30;99.90;;;;;;4993893;28;20053;-83
2022/01/29 04:05:01;;;;;;;15.10;7.82;;;8.30;99.90;;;;;;4995770;28;20069;-83
2022/01/29 04:07:26;;;;;;;18.42;7.72;;;8.30;99.90;;;;;;4994855;28;20029;-83
2022/01/29 04:09:54;;;;;;;21.85;7.65;;;8.30;99.90;;;;;;4995509;28;20022;-82
2022/01/29 04:12:19;;;;;;;25.20;8.45;;;8.30;99.90;;;;;;4995336;28;20022;-83
2022/01/29 04:14:45;;;;;;;20.75;8.07;;;8.40;99.90;;;;;;4994134;28;20026;-83
2022/01/29 04:17:11;;;;;;;18.45;7.18;;;8.40;99.90;;;;;;4993887;28;20041;-83
2022/01/29 04:19:38;;;;;;;22.85;8.77;;;8.40;99.90;;;;;;4993752;28;20027;-83
2022/01/29 04:22:06;;;;;;;16.48;7.45;;;8.40;99.90;;;;;;5010914;28;20081;-83
2022/01/29 04:24:33;;;;;;;17.35;7.90;;;8.40;99.90;;;;;;5013573;28;20137;-83
2022/01/29 04:27:01;;;;;;;20.45;6.72;;;8.40;99.90;;;;;;5013284;28;20406;-83
2022/01/29 04:29:39;;;;;;;13.80;6.88;;;8.40;99.90;;;;;;5014491;28;20025;-83
2022/01/29 04:32:12;;;;;;;17.05;7.30;;;8.40;99.90;;;;;;5014463;28;20022;-83
2022/01/29 04:34:37;;;;;;;23.75;8.18;;;8.50;99.90;;;;;;5013270;28;20032;-83
2022/01/29 04:37:03;;;;;;;20.45;7.95;;;8.40;99.90;;;;;;5012937;28;20022;-83
2022/01/29 04:39:29;;;;;;;15.35;7.70;;;8.40;99.90;;;;;;5014170;28;20121;-83
2022/01/29 04:41:54;;;;;;;22.30;9.05;;;8.40;99.90;;;;;;5013439;28;20033;-83
2022/01/29 04:44:20;;;;;;;21.98;8.45;;;8.50;99.90;;;;;;5013167;28;20125;-83
2022/01/29 04:46:45;;;;;;;15.82;8.02;;;8.40;99.90;;;;;;5013060;28;20049;-83
2022/01/29 04:49:11;;;;;;;23.95;8.43;;;8.50;99.90;;;;;;5013001;28;20026;-83
2022/01/29 04:51:37;;;;;;;24.95;8.77;;;8.50;99.90;;;;;;5014282;28;20553;-83
2022/01/29 04:54:02;;;;;;;19.00;8.07;;;8.50;99.90;;;;;;5014219;28;20022;-82
2022/01/29 04:56:28;;;;;;;18.15;8.32;;;8.50;99.90;;;;;;5013107;28;20025;-82
2022/01/29 04:58:54;;;;;;;17.75;8.07;;;8.50;99.90;;;;;;5014278;28;20030;-83
2022/01/29 05:01:19;;;;;;;18.95;8.27;;;8.50;99.90;;;;;;5013515;28;20026;-83
2022/01/29 05:03:45;;;;;;;19.85;8.65;;;8.50;99.90;;;;;;5013038;28;20034;-83
2022/01/29 05:06:12;;;;;;;16.55;8.23;;;8.60;99.90;;;;;;5012753;28;20029;-83
2022/01/29 05:08:38;;;;;;;17.10;7.82;;;8.60;99.90;;;;;;5014348;28;20370;-83
2022/01/29 05:11:05;;;;;;;15.20;8.02;;;8.60;99.90;;;;;;5012575;28;20021;-82
2022/01/29 05:13:32;;;;;;;17.10;8.27;;;8.60;99.90;;;;;;5006962;28;20389;-83
2022/01/29 05:27:01;;;;;;;15.18;7.88;;;8.60;99.90;;;;;;5003385;28;20084;-83
2022/01/29 05:29:30;;;;;;;19.33;7.50;;;8.60;99.90;;;;;;5013873;28;20076;-83
2022/01/29 05:31:58;;;;;;;16.92;7.38;;;8.50;99.90;;;;;;5012365;28;20026;-83
2022/01/29 05:34:23;;;;;;;19.17;8.07;;;8.70;99.90;;;;;;5012359;28;20095;-83
2022/01/29 05:36:49;;;;;;;15.50;7.50;;;8.70;99.90;;;;;;5013709;28;20655;-83
2022/01/29 05:39:15;;;;;;;22.00;8.15;;;8.70;99.90;;;;;;5012580;28;20022;-83
2022/01/29 05:41:41;;;;;;;17.60;8.07;;;8.60;99.90;;;;;;5013732;28;20022;-83
2022/01/29 05:44:07;;;;;;;18.48;8.70;;;8.70;99.90;;;;;;5017496;28;20056;-83
2022/01/29 05:46:32;;;;;;;16.05;7.78;;;8.70;99.90;;;;;;5016482;28;20032;-83
2022/01/29 05:48:58;;;;;;;17.55;8.57;;;8.80;99.90;;;;;;5003334;28;20019;-83
2022/01/29 05:51:24;;;;;;;18.02;7.45;;;8.60;99.90;;;;;;4996626;28;20034;-83
2022/01/29 05:53:49;;;;;;;14.15;6.50;;;8.70;99.90;;;;;;4996538;28;20026;-83
2022/01/29 05:56:15;;;;;;;21.48;8.18;;;8.70;99.90;;;;;;4996982;28;20084;-83
2022/01/29 05:58:41;;;;;;;16.17;7.65;;;8.70;99.90;;;;;;4997724;28;20046;-83
2022/01/29 06:01:07;;;;;;;17.67;7.57;;;8.70;99.90;;;;;;4996402;28;20031;-83
2022/01/29 06:06:40;;;;;;;19.05;6.68;;;8.70;99.90;;;;;;5000726;28;20042;-83
2022/01/29 06:09:06;;;;;;;17.05;6.22;;;8.70;99.90;;;;;;5004822;28;20053;-83
2022/01/29 06:11:32;;;;;;;14.63;7.28;;;8.70;99.90;;;;;;5010002;28;20023;-83
2022/01/29 06:13:58;;;;;;;14.18;7.18;;;8.70;99.90;;;;;;5011136;28;20030;-83
2022/01/29 06:16:24;;;;;;;17.67;7.53;;;8.70;99.90;;;;;;5015668;28;20021;-83
2022/01/29 06:18:50;;;;;;;13.93;6.40;;;8.70;99.90;;;;;;5016002;28;20162;-83
2022/01/29 06:21:15;;;;;;;18.10;7.05;;;8.70;99.90;;;;;;5015308;28;20096;-83
2022/01/29 06:23:42;;;;;;;12.80;6.80;;;8.70;99.90;;;;;;5016845;28;20030;-83
2022/01/29 06:26:09;;;;;;;19.05;6.80;;;8.70;99.90;;;;;;5015931;28;20625;-83
2022/01/29 06:28:36;;;;;;;12.15;6.13;;;8.70;99.90;;;;;;5015834;28;20033;-83
2022/01/29 06:31:02;;;;;;;18.15;6.40;;;8.70;99.90;;;;;;5015917;28;20097;-83
2022/01/29 06:33:28;;;;;;;17.23;6.53;;;8.70;99.90;;;;;;5015682;28;20029;-84
2022/01/29 06:35:54;;;;;;;14.25;6.60;;;8.70;99.90;;;;;;5015259;28;20171;-83
2022/01/29 06:38:20;;;;;;;14.02;6.07;;;8.80;99.90;;;;;;5015230;28;20057;-83
2022/01/29 06:40:46;;;;;;;13.18;5.70;;;8.80;99.90;;;;;;5004564;28;20088;-83
2022/01/29 06:43:11;;;;;;;17.63;6.65;;;8.70;99.90;;;;;;4995536;28;20026;-83
2022/01/29 06:45:40;;;;;;;16.20;6.43;;;8.70;99.90;;;;;;4995877;28;20882;-83
2022/01/29 06:48:06;;;;;;;15.18;6.18;;;8.70;99.90;;;;;;4995926;28;20023;-83
2022/01/29 06:50:33;;;;;;;16.73;5.60;;;8.80;99.90;;;;;;4998229;28;20561;-83
2022/01/29 06:52:58;;;;;;;14.15;5.53;;;8.70;99.90;;;;;;5003542;28;20031;-83
2022/01/29 06:55:24;;;;;;;11.32;6.15;;;8.70;99.90;;;;;;4997208;28;20467;-83
2022/01/29 06:57:49;;;;;;;12.80;5.88;;;8.70;99.90;;;;;;4995847;28;20022;-83
2022/01/29 07:00:15;;;;;;;19.52;6.22;;;8.70;99.90;;;;;;4999698;28;20113;-83
2022/01/29 07:02:41;;;;;;;16.23;4.60;;;8.70;99.90;;;;;;5000619;28;20401;-84
2022/01/29 07:05:09;;;;;;;14.05;5.88;;;8.70;99.90;;;;;;5011744;28;20545;-84
2022/01/29 07:07:34;;;;;;;14.73;5.40;;;8.70;99.90;;;;;;5012894;28;20022;-83
2022/01/29 07:10:01;;;;;;;15.80;5.82;;;8.70;99.90;;;;;;5002114;28;20030;-83
2022/01/29 07:12:26;;;;;;;13.95;5.25;;;8.60;99.90;;;;;;5000072;28;20592;-83
2022/01/29 07:14:52;;;;;;;16.02;5.47;;;8.70;99.90;;;;;;5013206;28;20030;-84
2022/01/29 07:17:22;;;;;;;17.13;6.10;;;8.70;99.90;;;;;;5003858;28;20033;-83
2022/01/29 07:19:48;;;;;;;12.00;5.30;;;8.70;99.90;;;;;;5007820;28;20552;-83
2022/01/29 07:22:14;;;;;;;16.10;5.47;;;8.70;99.90;;;;;;5014184;28;20052;-83
2022/01/29 07:24:40;;;;;;;16.13;6.15;;;8.70;99.90;;;;;;5014408;28;20112;-83
2022/01/29 07:27:06;;;;;;;13.50;5.32;;;8.70;99.90;;;;;;5011772;28;20018;-83
2022/01/29 07:29:32;;;;;;;15.38;5.50;;;8.70;99.90;;;;;;5014133;28;20022;-84
2022/01/29 07:31:58;;;;;;;16.90;5.90;;;8.70;99.90;;;;;;5014873;28;20080;-83
2022/01/29 07:34:25;;;;;;;16.30;6.05;;;8.70;99.90;;;;;;5014534;28;20025;-83
2022/01/29 07:36:56;;;;;;;16.98;5.65;;;8.70;99.90;;;;;;5014331;28;20033;-82
2022/01/29 07:39:23;;;;;;;13.38;5.53;;;8.70;99.90;;;;;;5015465;28;20088;-83
2022/01/29 07:41:49;;;;;;;11.43;4.80;;;8.70;99.90;;;;;;5006674;28;20030;-83
2022/01/29 07:44:15;;;;;;;12.38;5.97;;;8.70;99.90;;;;;;4995922;28;20034;-82
2022/01/29 07:46:41;;;;;;;15.15;5.43;;;8.80;99.90;;;;;;4994343;28;20356;-83
2022/01/29 07:49:07;;;;;;;15.48;4.80;;;8.70;99.90;;;;;;4995677;28;20037;-82
2022/01/29 07:51:32;;;;;;;15.15;4.90;;;8.70;99.90;;;;;;4994313;28;20022;-82
2022/01/29 07:53:58;;;;;;;9.10;5.72;;;8.80;99.90;;;;;;4995871;28;20061;-83
2022/01/29 07:56:24;;;;;;;14.27;6.00;;;8.80;99.90;;;;;;4994514;28;20023;-83
2022/01/29 07:58:50;;;;;;;15.25;5.40;;;8.80;99.90;;;;;;4999896;28;20024;-83
2022/01/29 08:01:16;;;;;;;12.35;4.35;;;8.90;99.90;;;;;;5001015;28;20040;-82
2022/01/29 08:03:46;;;;;;;10.10;3.80;;;8.90;99.90;;;;;;5005587;28;20026;-81
2022/01/29 08:06:15;;;;;;;15.13;5.00;;;9.00;99.90;;;;;;5008289;28;20033;-82
2022/01/29 08:08:42;;;;;;;9.65;3.90;;;9.00;87.20;;;;;;5003180;28;20429;-82
2022/01/29 08:11:08;;;;;;;12.73;4.00;;;9.00;64.00;;;;;;4999950;28;20038;-83
2022/01/29 08:13:35;;;;;;;10.02;3.55;;;9.00;52.00;;;;;;5008239;28;20030;-82
2022/01/29 08:16:01;;;;;;;11.75;4.45;;;9.00;10.80;;;;;;4996162;28;20033;-83
2022/01/29 08:18:26;;;;;;;11.50;3.70;;;9.10;11.80;;;;;;5004935;28;20026;-82
2022/01/29 08:20:52;;;;;;;11.82;3.85;;;9.10;1.00;;;;;;5000695;28;20054;-82
2022/01/29 08:23:18;;;;;;;11.27;3.78;;;9.10;1.00;;;;;;5001227;28;20038;-82
2022/01/29 08:25:43;;;;;;;10.82;4.00;;;9.20;1.00;;;;;;5000995;28;20109;-82
2022/01/29 08:28:09;;;;;;;10.05;3.88;;;9.20;1.00;;;;;;5003642;28;20018;-82
2022/01/29 08:30:35;;;;;;;11.70;4.30;;;9.30;1.00;;;;;;5010442;28;20030;-82
2022/01/29 08:33:01;;;;;;;6.47;3.58;;;9.30;1.00;;;;;;5013224;28;20400;-82
2022/01/29 08:35:35;;;;;;;12.85;4.43;;;9.30;1.00;;;;;;5010194;28;20085;-82
2022/01/29 08:38:00;;;;;;;11.15;3.00;;;9.40;1.00;;;;;;4983819;28;20045;-81
2022/01/29 08:40:27;;;;;;;12.88;3.85;;;9.40;1.00;;;;;;5009439;28;20028;-81
2022/01/29 08:42:53;;;;;;;6.88;2.78;;;9.40;1.00;;;;;;4994186;28;20406;-81
2022/01/29 08:45:19;;;;;;;10.13;3.40;;;9.40;1.00;;;;;;4995249;28;20037;-81
2022/01/29 08:47:44;;;;;;;7.80;3.50;;;9.40;1.00;;;;;;4997572;28;20014;-81
2022/01/29 08:50:13;;;;;;;8.00;2.95;;;9.50;99.90;;;;;;4996568;28;20492;-81
2022/01/29 08:52:39;;;;;;;9.35;2.97;;;9.50;99.90;;;;;;4994704;28;20089;-81
2022/01/29 08:55:06;;;;;;;9.45;3.25;;;9.60;99.90;;;;;;4999406;28;20026;-81
2022/01/29 08:57:32;;;;;;;9.43;3.17;;;9.60;99.90;;;;;;4992540;28;20113;-81
2022/01/29 08:59:58;;;;;;;10.32;3.05;;;9.60;99.90;;;;;;5002875;28;20021;-81
2022/01/29 09:02:24;;;;;;;9.00;2.75;;;9.70;99.90;;;;;;5009993;28;20117;-81
2022/01/29 09:04:52;;;;;;;8.45;2.58;;;9.80;99.90;;;;;;4996840;28;20113;-81
2022/01/29 09:07:17;;;;;;;10.80;2.97;;;9.80;99.90;;;;;;4994236;28;20024;-81
2022/01/29 09:09:45;;;;;;;6.30;2.28;;;9.80;99.90;;;;;;4997882;28;20022;-81
2022/01/29 09:12:11;;;;;;;7.43;2.50;;;9.80;99.90;;;;;;5000543;28;20049;-81
2022/01/29 09:14:37;;;;;;;7.10;2.50;;;9.90;99.90;;;;;;5010125;28;20104;-81
2022/01/29 09:17:03;;;;;;;6.35;2.25;;;9.90;99.90;;;;;;5012089;28;20458;-81
2022/01/29 09:19:28;;;;;;;5.25;2.42;;;9.90;99.90;;;;;;5013905;28;20109;-81
2022/01/29 09:21:54;;;;;;;11.93;2.45;;;10.00;99.90;;;;;;5012341;28;20054;-81
2022/01/29 09:24:19;;;;;;;9.57;1.92;;;10.00;99.90;;;;;;5011798;28;20486;-81
2022/01/29 09:26:45;;;;;;;8.80;2.53;;;10.00;99.90;;;;;;5011177;28;20054;-81
2022/01/29 09:29:10;;;;;;;9.52;2.75;;;10.10;99.90;;;;;;5010024;28;20026;-81
2022/01/29 09:31:36;;;;;;;5.82;1.45;;;10.10;99.90;;;;;;5010289;28;20026;-81
2022/01/29 09:34:02;;;;;;;7.80;2.15;;;10.10;99.90;;;;;;5010680;28;20561;-80
2022/01/29 09:36:28;;;;;;;6.72;1.60;;;10.10;99.90;;;;;;5010725;28;20490;-81
2022/01/29 09:38:54;;;;;;;7.13;2.13;;;10.10;99.90;;;;;;5010295;28;20057;-81
2022/01/29 09:41:24;;;;;;;7.95;1.70;;;10.20;99.90;;;;;;5010714;28;20098;-81
2022/01/29 09:43:51;;;;;;;10.40;2.20;;;10.30;99.90;;;;;;5010279;28;20560;-81
2022/01/29 09:46:17;;;;;;;9.75;1.80;;;10.40;99.90;;;;;;5010782;28;20409;-81
2022/01/29 09:48:44;;;;;;;5.38;1.60;;;10.40;99.90;;;;;;5010845;28;20533;-81
2022/01/29 09:51:12;;;;;;;5.30;1.35;;;10.50;99.90;;;;;;5010491;28;20191;-81
2022/01/29 09:53:43;;;;;;;10.38;1.90;;;10.70;99.90;;;;;;5010682;28;20053;-81
2022/01/29 09:56:14;;;;;;;;;;;10.70;99.90;;;;;;5011307;28;20022;-81
2022/01/29 09:58:41;;;;;;;7.07;2.08;;;10.80;99.90;;;;;;5009511;28;19936;-81
2022/01/29 10:01:07;;;;;;;9.73;2.50;;;10.90;99.90;;;;;;5010407;28;20042;-81
2022/01/29 10:03:33;;;;;;;12.80;2.50;;;10.90;99.90;;;;;;5010530;28;20034;-81
2022/01/29 10:06:00;;;;;;;9.02;1.70;;;10.90;99.90;;;;;;5005699;28;20022;-81
2022/01/29 10:08:27;;;;;;;5.38;1.42;;;11.10;99.90;;;;;;4996675;28;20572;-81
2022/01/29 10:10:55;;;;;;;7.85;1.88;;;11.10;90.40;;;;;;4997999;28;20030;-81
2022/01/29 10:13:21;;;;;;;9.23;1.90;;;11.30;54.60;;;;;;5002575;28;20113;-81
2022/01/29 10:15:47;;;;;;;9.02;2.20;;;11.50;38.80;;;;;;4993438;28;20391;-81
2022/01/29 10:18:23;;;;;;;10.45;2.00;;;11.60;32.00;;;;;;4998498;28;20462;-81
2022/01/29 10:20:49;;;;;;;12.43;2.65;;;11.80;2.80;;;;;;5007953;28;20057;-81
2022/01/29 10:23:15;;;;;;;9.52;1.77;;;11.60;1.00;;;;;;5005276;28;20042;-81
2022/01/29 10:25:43;;;;;;;7.72;1.95;;;11.50;1.00;;;;;;4993387;28;20102;-81
2022/01/29 10:28:14;;;;;;;10.90;2.00;;;11.30;21.30;;;;;;4994666;28;20018;-81
2022/01/29 10:30:49;;;;;;;5.57;1.63;;;11.30;46.90;;;;;;5004656;28;20049;-81
2022/01/29 10:33:29;;;;;;;6.55;1.80;;;11.50;10.60;;;;;;5015233;28;20397;-81
2022/01/29 10:35:58;;;;;;;9.13;1.70;;;11.60;1.60;;;;;;4997246;28;20027;-80
2022/01/29 10:38:26;;;;;;;5.30;1.13;;;11.70;1.00;;;;;;4997325;28;20066;-81
2022/01/29 10:41:27;;;;;;;6.13;1.90;;;11.60;1.00;;;;;;5006645;28;20069;-80
2022/01/29 10:44:13;;;;;;;7.28;2.20;;;11.70;1.00;;;;;;5006224;28;20054;-81
2022/01/29 10:46:42;;;;;;;5.32;1.50;;;12.10;1.00;;;;;;4997155;28;20414;-81
2022/01/29 10:49:14;;;;;;;7.32;1.98;;;12.40;1.00;;;;;;5011513;28;20022;-80
2022/01/29 10:51:40;;;;;;;4.20;1.45;;;12.00;1.00;;;;;;5015103;28;20030;-81
2022/01/29 10:54:17;;;;;;;13.50;3.13;;;11.90;1.00;;;;;;5012681;28;20041;-80
2022/01/29 10:56:57;;;;;;;5.32;1.75;;;11.50;1.00;;;;;;4997203;28;20109;-80
2022/01/29 10:59:23;;;;;;;;;;;11.40;1.00;;;;;;4997231;28;20022;-80
2022/01/29 11:01:50;;;;;;;8.70;1.88;;;11.40;1.00;;;;;;4998615;28;19976;-80
2022/01/29 11:04:16;;;;;;;6.32;1.65;;;11.30;1.00;;;;;;5003981;28;20029;-81
2022/01/29 11:06:45;;;;;;;6.10;1.45;;;11.20;1.00;;;;;;5009468;28;20114;-81
2022/01/29 11:09:12;;;;;;;4.88;1.42;;;11.20;1.00;;;;;;5007372;28;20088;-81
2022/01/29 11:11:39;;;;;;;6.13;1.60;;;11.50;1.00;;;;;;5007958;28;20053;-80
2022/01/29 11:14:07;;;;;;;8.15;1.40;;;11.40;1.00;;;;;;5016715;28;20113;-81
2022/01/29 11:16:34;;;;;;;11.00;1.98;;;11.60;1.00;;;;;;5016262;28;20030;-81
2022/01/29 11:19:38;;;;;;;8.02;1.55;;;11.90;1.00;;;;;;5016127;28;20022;-81
2022/01/29 11:22:05;;;;;;;6.47;1.27;;;12.00;1.00;;;;;;5008221;28;20160;-80
2022/01/29 11:24:32;;;;;;;5.50;1.70;;;12.20;1.00;;;;;;5012474;28;20478;-81
2022/01/29 11:26:58;;;;;;;7.45;1.88;;;12.40;1.00;;;;;;5001212;28;20032;-80
2022/01/29 11:29:34;;;;;;;4.47;1.35;;;12.70;1.00;;;;;;4996088;28;20026;-80
2022/01/29 11:32:21;;;;;;;6.50;1.35;;;12.50;1.00;;;;;;4996107;28;20027;-81
2022/01/29 11:35:09;;;;;;;7.90;1.52;;;12.50;1.00;;;;;;5014135;28;20467;-81
2022/01/29 11:37:48;;;;;;;4.05;1.10;;;12.60;1.00;;;;;;5012617;28;20030;-81
2022/01/29 11:40:28;;;;;;;7.78;1.98;;;12.60;1.00;;;;;;5012589;28;20474;-81
2022/01/29 11:43:14;;;;;;;6.80;1.40;;;12.40;1.00;;;;;;5001291;28;20025;-81
2022/01/29 11:45:44;;;;;;;6.57;1.23;;;12.10;1.00;;;;;;4998815;28;20037;-80
2022/01/29 11:48:29;;;;;;;5.40;1.00;;;12.10;1.00;;;;;;5008242;28;20076;-81
2022/01/29 11:51:02;;;;;;;2.67;1.02;;;12.00;1.00;;;;;;5012869;28;20385;-81
2022/01/29 11:53:50;;;;;;;9.88;2.08;;;12.00;1.00;;;;;;5010769;28;20026;-81
2022/01/29 11:56:29;;;;;;;4.88;1.40;;;11.80;1.00;;;;;;5014492;28;20030;-81
2022/01/29 11:59:20;;;;;;;9.32;1.92;;;11.70;1.00;;;;;;5005718;28;20026;-80
2022/01/29 12:02:24;;;;;;;8.43;2.10;;;11.70;1.00;;;;;;5000567;28;20030;-81
2022/01/29 12:04:58;;;;;;;8.73;1.45;;;11.80;1.00;;;;;;5019978;28;20042;-80
2022/01/29 12:09:58;;;;;;;9.32;1.73;;;11.90;1.00;;;;;;5008560;28;20030;-80
2022/01/29 12:12:26;;;;;;;9.38;1.63;;;11.80;1.00;;;;;;4994281;28;20042;-81
2022/01/29 12:15:17;;;;;;;7.72;1.60;;;11.80;1.00;;;;;;5009413;28;20234;-81
2022/01/29 12:17:51;;;;;;;9.73;1.52;;;11.80;1.00;;;;;;5009248;28;20184;-81
2022/01/29 12:20:19;;;;;;;12.18;1.52;;;12.00;1.00;;;;;;5011625;28;20028;-81
2022/01/29 12:22:45;;;;;;;13.65;1.73;;;12.40;1.00;;;;;;5011815;28;20041;-81
2022/01/29 12:25:27;;;;;;;6.38;1.60;;;12.20;1.00;;;;;;5011793;28;20173;-81
2022/01/29 12:27:56;;;;;;;11.10;2.50;;;12.50;1.00;;;;;;5011463;28;20489;-81
2022/01/29 12:30:24;;;;;;;8.02;1.33;;;12.40;1.00;;;;;;5011128;28;20542;-81
2022/01/29 12:33:02;;;;;;;7.75;1.52;;;12.20;1.00;;;;;;5000144;28;20018;-80
2022/01/29 12:35:56;;;;;;;8.48;1.52;;;12.00;1.00;;;;;;5004471;28;20030;-80
2022/01/29 12:38:40;;;;;;;11.07;1.70;;;11.80;1.00;;;;;;5011636;28;20030;-80
2022/01/29 12:41:09;;;;;;;7.20;1.27;;;11.70;1.00;;;;;;5003110;28;20030;-80
2022/01/29 12:46:23;;;;;;;8.23;1.90;;;11.30;1.00;;;;;;5010595;28;20061;-80
2022/01/29 12:49:07;;;;;;;11.57;1.52;;;11.20;1.00;;;;;;5014495;28;20094;-80
2022/01/29 12:51:53;;;;;;;9.77;1.70;;;11.10;1.00;;;;;;5014365;28;20022;-80
2022/01/29 12:54:19;;;;;;;7.55;1.50;;;11.00;1.00;;;;;;5013728;28;20666;-80
2022/01/29 12:56:45;;;;;;;8.82;1.50;;;11.00;3.20;;;;;;5010217;28;20025;-80
2022/01/29 12:59:12;;;;;;;10.60;1.90;;;11.00;3.10;;;;;;5011327;28;20095;-80
2022/01/29 13:01:40;;;;;;;5.65;1.30;;;10.90;5.20;;;;;;5011140;28;20034;-80
2022/01/29 13:04:17;;;;;;;9.45;1.55;;;11.00;11.30;;;;;;5011194;28;20104;-80
2022/01/29 13:06:43;;;;;;;8.75;1.20;;;11.00;6.60;;;;;;5009195;28;20079;-81
2022/01/29 13:09:18;;;;;;;8.95;1.60;;;11.10;1.60;;;;;;5002029;28;20032;-80
2022/01/29 13:11:45;;;;;;;6.95;2.28;;;11.30;1.00;;;;;;4995496;28;20029;-81
2022/01/29 13:14:20;;;;;;;5.15;1.65;;;11.40;1.00;;;;;;4995292;28;20018;-81
2022/01/29 13:16:52;;;;;;;15.88;1.83;;;11.40;1.00;;;;;;4996576;28;20022;-80
2022/01/29 13:19:19;;;;;;;8.68;1.48;;;11.40;1.00;;;;;;4995722;28;20474;-80
2022/01/29 13:21:45;;;;;;;9.50;1.70;;;11.60;1.00;;;;;;5004735;28;20553;-81
2022/01/29 13:24:26;;;;;;;11.13;1.42;;;11.80;1.00;;;;;;5008200;28;20034;-80